Strona główna
METAR-TAF:

METAR-TAF

Lotnisko :

Bu Saada, Algieria

Szerokość geograficzna: 35-20N, Długość geograficzna: 004-12E, wysokość: 461 m

Aktualna obserwacja pogody

Raport powstał 47 minut temu, godzina 17:00 UTC
Wiatr 7 kt od północ
Temperatura 36°C
Wilgotność 12%
Ciśnienie 1011 hPa
Widzialność 10 km lub więcej
Brak chmur poniżej 1500 m i brak chmur cumulonimbus

METAR: DAAD 251700Z 35007KT CAVOK 36/02 Q1011

czas: 18:47 (17:47 UTC)

Prognoza

Raport powstał 3 godziny i 47 minut temu, godzina 14:00 UTC
Prognoza ważna od 25 godzina 15 UTC do 25 godzina 24 UTC
Wiatr 12 kt od północno-północny zachód
Widzialność 10 km lub więcej
Mało chmury na wysokości 2600 ft

TAF: DAAD 251400Z 2515/2524 34012KT 9999 FEW026

Obserwacja i prognoza pogody dla ponad 4000 lotnisk (raport METAR i TAF).

Dostępne stacje oznaczono żółtymi i czerwonymi punktami na mapie.

Najedź kursorem aby zobaczyć nazwę stacji.

Kliknij aby zobaczyć obserwacje i prognozy pogody.

Aby zmienić mapę: kliknij na zielony przycisk z czarnym krzyżykiem, aby powiększyć; na zielony przycisk z myślnikiem, aby pomniejszyć; na zielone strzałki, aby przejść do map sąsiednich.


METAR-TAF: